sensor_id;sensor_type;location;lat;lon;timestamp;temperature;humidity
51589;DHT22;37671;53.258;6.460;2022-12-07T00:00:53;3.40;99.90
51589;DHT22;37671;53.258;6.460;2022-12-07T00:03:18;4.80;99.90
51589;DHT22;37671;53.258;6.460;2022-12-07T00:05:44;3.40;99.90
51589;DHT22;37671;53.258;6.460;2022-12-07T00:08:10;3.40;99.90
51589;DHT22;37671;53.258;6.460;2022-12-07T00:10:35;3.40;99.90
51589;DHT22;37671;53.258;6.460;2022-12-07T00:13:01;3.50;99.90
51589;DHT22;37671;53.258;6.460;2022-12-07T00:15:27;3.40;99.90
51589;DHT22;37671;53.258;6.460;2022-12-07T00:17:52;3.40;99.90
51589;DHT22;37671;53.258;6.460;2022-12-07T00:20:18;3.30;99.90
51589;DHT22;37671;53.258;6.460;2022-12-07T00:22:43;3.30;99.90
51589;DHT22;37671;53.258;6.460;2022-12-07T00:25:09;3.30;99.90
51589;DHT22;37671;53.258;6.460;2022-12-07T00:27:35;3.40;99.90
51589;DHT22;37671;53.258;6.460;2022-12-07T00:30:00;3.50;99.90
51589;DHT22;37671;53.258;6.460;2022-12-07T06:02:24;2.00;99.90
51589;DHT22;37671;53.258;6.460;2022-12-07T06:04:49;2.30;99.90
51589;DHT22;37671;53.258;6.460;2022-12-07T06:07:16;2.60;99.90
51589;DHT22;37671;53.258;6.460;2022-12-07T06:09:42;2.70;99.90
51589;DHT22;37671;53.258;6.460;2022-12-07T06:12:10;2.70;99.90
51589;DHT22;37671;53.258;6.460;2022-12-07T06:14:55;2.70;99.90
51589;DHT22;37671;53.258;6.460;2022-12-07T06:17:20;2.60;99.90
51589;DHT22;37671;53.258;6.460;2022-12-07T06:19:46;2.50;99.90
51589;DHT22;37671;53.258;6.460;2022-12-07T06:22:12;2.40;99.90
51589;DHT22;37671;53.258;6.460;2022-12-07T06:24:38;3.00;99.90
51589;DHT22;37671;53.258;6.460;2022-12-07T06:27:04;2.30;99.90
51589;DHT22;37671;53.258;6.460;2022-12-07T06:29:31;2.30;99.90
51589;DHT22;37671;53.258;6.460;2022-12-07T06:31:56;2.20;99.90
51589;DHT22;37671;53.258;6.460;2022-12-07T06:34:23;2.10;99.90
51589;DHT22;37671;53.258;6.460;2022-12-07T06:36:50;2.10;99.90
51589;DHT22;37671;53.258;6.460;2022-12-07T06:39:19;2.00;99.90
51589;DHT22;37671;53.258;6.460;2022-12-07T06:41:45;1.90;99.90
51589;DHT22;37671;53.258;6.460;2022-12-07T06:44:11;2.30;99.90
51589;DHT22;37671;53.258;6.460;2022-12-07T06:46:37;2.70;99.90
51589;DHT22;37671;53.258;6.460;2022-12-07T06:49:04;1.70;99.90
51589;DHT22;37671;53.258;6.460;2022-12-07T06:51:30;1.70;99.90
51589;DHT22;37671;53.258;6.460;2022-12-07T06:53:56;1.70;99.90
51589;DHT22;37671;53.258;6.460;2022-12-07T06:56:22;3.20;99.90
51589;DHT22;37671;53.258;6.460;2022-12-07T06:58:48;1.90;99.90
51589;DHT22;37671;53.258;6.460;2022-12-07T07:01:16;2.10;99.90
51589;DHT22;37671;53.258;6.460;2022-12-07T07:03:43;2.60;99.90
51589;DHT22;37671;53.258;6.460;2022-12-07T07:06:09;2.30;99.90
51589;DHT22;37671;53.258;6.460;2022-12-07T07:08:36;3.50;99.90
51589;DHT22;37671;53.258;6.460;2022-12-07T07:11:02;2.50;99.90
51589;DHT22;37671;53.258;6.460;2022-12-07T07:13:28;2.50;99.90
51589;DHT22;37671;53.258;6.460;2022-12-07T07:15:54;2.50;99.90
51589;DHT22;37671;53.258;6.460;2022-12-07T07:18:20;2.60;99.90
51589;DHT22;37671;53.258;6.460;2022-12-07T07:20:45;2.60;99.90
51589;DHT22;37671;53.258;6.460;2022-12-07T07:23:11;2.60;99.90
51589;DHT22;37671;53.258;6.460;2022-12-07T07:25:37;2.60;99.90
51589;DHT22;37671;53.258;6.460;2022-12-07T07:28:03;2.50;99.90
51589;DHT22;37671;53.258;6.460;2022-12-07T07:30:29;2.50;99.90
51589;DHT22;37671;53.258;6.460;2022-12-07T07:32:59;2.40;99.90
51589;DHT22;37671;53.258;6.460;2022-12-07T07:35:27;2.30;99.90
51589;DHT22;37671;53.258;6.460;2022-12-07T07:37:52;2.30;99.90
51589;DHT22;37671;53.258;6.460;2022-12-07T07:40:18;2.20;99.90
51589;DHT22;37671;53.258;6.460;2022-12-07T07:42:53;2.10;99.90
51589;DHT22;37671;53.258;6.460;2022-12-07T07:45:21;2.00;99.90
51589;DHT22;37671;53.258;6.460;2022-12-07T07:47:47;1.90;99.90
51589;DHT22;37671;53.258;6.460;2022-12-07T07:50:13;1.90;99.90
51589;DHT22;37671;53.258;6.460;2022-12-07T07:52:39;1.90;99.90
51589;DHT22;37671;53.258;6.460;2022-12-07T07:55:06;2.00;99.90
51589;DHT22;37671;53.258;6.460;2022-12-07T07:57:37;2.00;99.90
51589;DHT22;37671;53.258;6.460;2022-12-07T08:00:14;1.90;99.90
51589;DHT22;37671;53.258;6.460;2022-12-07T08:02:41;1.90;99.90
51589;DHT22;37671;53.258;6.460;2022-12-07T08:05:08;1.90;99.90
51589;DHT22;37671;53.258;6.460;2022-12-07T08:07:34;1.80;99.90
51589;DHT22;37671;53.258;6.460;2022-12-07T08:09:59;1.70;99.90
51589;DHT22;37671;53.258;6.460;2022-12-07T08:12:25;1.80;99.90
51589;DHT22;37671;53.258;6.460;2022-12-07T08:14:50;1.80;99.90
51589;DHT22;37671;53.258;6.460;2022-12-07T08:17:16;1.90;99.90
51589;DHT22;37671;53.258;6.460;2022-12-07T08:19:42;2.00;99.90
51589;DHT22;37671;53.258;6.460;2022-12-07T08:22:08;2.00;99.90
51589;DHT22;37671;53.258;6.460;2022-12-07T08:24:35;2.10;99.90
51589;DHT22;37671;53.258;6.460;2022-12-07T08:27:00;2.20;99.90
51589;DHT22;37671;53.258;6.460;2022-12-07T08:29:26;2.60;99.90
51589;DHT22;37671;53.258;6.460;2022-12-07T08:31:52;2.70;99.90
51589;DHT22;37671;53.258;6.460;2022-12-07T08:34:17;2.90;99.90
51589;DHT22;37671;53.258;6.460;2022-12-07T08:36:43;2.40;99.90
51589;DHT22;37671;53.258;6.460;2022-12-07T08:39:09;3.30;99.90
51589;DHT22;37671;53.258;6.460;2022-12-07T08:41:35;3.60;99.90
51589;DHT22;37671;53.258;6.460;2022-12-07T08:44:00;5.60;99.90
51589;DHT22;37671;53.258;6.460;2022-12-07T08:46:52;3.90;99.90
51589;DHT22;37671;53.258;6.460;2022-12-07T08:49:24;3.80;99.90
51589;DHT22;37671;53.258;6.460;2022-12-07T08:51:51;3.70;99.90
51589;DHT22;37671;53.258;6.460;2022-12-07T08:54:18;3.80;99.90
51589;DHT22;37671;53.258;6.460;2022-12-07T08:56:46;3.80;99.90
51589;DHT22;37671;53.258;6.460;2022-12-07T08:59:14;4.60;99.90
51589;DHT22;37671;53.258;6.460;2022-12-07T09:01:40;4.90;99.90
51589;DHT22;37671;53.258;6.460;2022-12-07T09:04:06;4.40;99.90
51589;DHT22;37671;53.258;6.460;2022-12-07T09:06:31;4.30;99.90
51589;DHT22;37671;53.258;6.460;2022-12-07T09:08:58;4.30;99.90
51589;DHT22;37671;53.258;6.460;2022-12-07T09:11:25;4.30;99.90
51589;DHT22;37671;53.258;6.460;2022-12-07T09:13:50;4.50;99.90
51589;DHT22;37671;53.258;6.460;2022-12-07T09:16:16;4.90;99.90
51589;DHT22;37671;53.258;6.460;2022-12-07T09:18:41;4.70;99.90
51589;DHT22;37671;53.258;6.460;2022-12-07T09:21:07;4.70;99.90
51589;DHT22;37671;53.258;6.460;2022-12-07T09:23:33;4.60;99.90
51589;DHT22;37671;53.258;6.460;2022-12-07T09:26:03;4.60;99.90
51589;DHT22;37671;53.258;6.460;2022-12-07T09:28:30;4.50;99.90
51589;DHT22;37671;53.258;6.460;2022-12-07T09:30:57;4.50;99.90
51589;DHT22;37671;53.258;6.460;2022-12-07T09:33:23;4.50;99.90
51589;DHT22;37671;53.258;6.460;2022-12-07T09:35:50;5.10;99.90
51589;DHT22;37671;53.258;6.460;2022-12-07T09:38:16;4.50;99.90
51589;DHT22;37671;53.258;6.460;2022-12-07T09:40:42;4.50;99.90
51589;DHT22;37671;53.258;6.460;2022-12-07T09:43:14;4.50;99.90
51589;DHT22;37671;53.258;6.460;2022-12-07T09:45:41;4.40;99.90
51589;DHT22;37671;53.258;6.460;2022-12-07T09:48:33;4.40;99.90
51589;DHT22;37671;53.258;6.460;2022-12-07T09:51:03;4.40;99.90
51589;DHT22;37671;53.258;6.460;2022-12-07T09:53:37;4.40;99.90
51589;DHT22;37671;53.258;6.460;2022-12-07T09:56:04;4.50;99.90
51589;DHT22;37671;53.258;6.460;2022-12-07T09:58:31;4.50;99.90
51589;DHT22;37671;53.258;6.460;2022-12-07T10:01:11;5.90;99.90
51589;DHT22;37671;53.258;6.460;2022-12-07T10:03:39;4.60;99.90
51589;DHT22;37671;53.258;6.460;2022-12-07T10:06:06;4.70;99.90
51589;DHT22;37671;53.258;6.460;2022-12-07T10:08:33;4.70;99.90
51589;DHT22;37671;53.258;6.460;2022-12-07T10:10:59;4.80;99.90
51589;DHT22;37671;53.258;6.460;2022-12-07T10:16:02;5.00;99.90
51589;DHT22;37671;53.258;6.460;2022-12-07T10:18:38;5.00;99.90
51589;DHT22;37671;53.258;6.460;2022-12-07T10:21:18;5.10;99.90
51589;DHT22;37671;53.258;6.460;2022-12-07T10:26:37;5.30;99.90
51589;DHT22;37671;53.258;6.460;2022-12-07T10:29:29;5.50;99.90
51589;DHT22;37671;53.258;6.460;2022-12-07T10:42:30;5.80;99.90
51589;DHT22;37671;53.258;6.460;2022-12-07T10:45:15;5.90;99.90
51589;DHT22;37671;53.258;6.460;2022-12-07T10:48:04;5.90;99.90
51589;DHT22;37671;53.258;6.460;2022-12-07T11:04:18;5.00;99.90
51589;DHT22;37671;53.258;6.460;2022-12-07T11:12:39;4.90;99.90
51589;DHT22;37671;53.258;6.460;2022-12-07T11:15:23;4.90;99.90
51589;DHT22;37671;53.258;6.460;2022-12-07T11:18:03;4.90;99.90
51589;DHT22;37671;53.258;6.460;2022-12-07T11:20:49;4.90;99.90
51589;DHT22;37671;53.258;6.460;2022-12-07T11:23:29;4.80;99.90
51589;DHT22;37671;53.258;6.460;2022-12-07T11:31:33;4.80;99.90
51589;DHT22;37671;53.258;6.460;2022-12-07T11:34:56;4.90;99.90
51589;DHT22;37671;53.258;6.460;2022-12-07T11:37:01;5.00;99.90
51589;DHT22;37671;53.258;6.460;2022-12-07T11:39:35;5.10;99.90
51589;DHT22;37671;53.258;6.460;2022-12-07T11:42:24;5.20;99.90
51589;DHT22;37671;53.258;6.460;2022-12-07T11:45:12;5.30;99.90
51589;DHT22;37671;53.258;6.460;2022-12-07T11:47:47;5.30;99.90
51589;DHT22;37671;53.258;6.460;2022-12-07T11:55:48;5.30;99.90
51589;DHT22;37671;53.258;6.460;2022-12-07T12:06:40;5.30;99.90
51589;DHT22;37671;53.258;6.460;2022-12-07T12:09:16;5.30;99.90
51589;DHT22;37671;53.258;6.460;2022-12-07T12:11:53;5.30;99.90
51589;DHT22;37671;53.258;6.460;2022-12-07T12:14:48;5.20;99.90
51589;DHT22;37671;53.258;6.460;2022-12-07T12:20:02;5.20;99.90
51589;DHT22;37671;53.258;6.460;2022-12-07T12:22:40;5.20;99.90
51589;DHT22;37671;53.258;6.460;2022-12-07T12:25:20;5.20;99.90
51589;DHT22;37671;53.258;6.460;2022-12-07T12:27:48;5.30;99.90
51589;DHT22;37671;53.258;6.460;2022-12-07T12:33:03;5.40;99.90
51589;DHT22;37671;53.258;6.460;2022-12-07T12:35:36;5.50;99.90
51589;DHT22;37671;53.258;6.460;2022-12-07T12:38:32;5.60;99.90
51589;DHT22;37671;53.258;6.460;2022-12-07T12:41:01;5.60;99.90
51589;DHT22;37671;53.258;6.460;2022-12-07T12:51:43;5.60;99.90
51589;DHT22;37671;53.258;6.460;2022-12-07T12:54:20;5.10;99.90
51589;DHT22;37671;53.258;6.460;2022-12-07T12:57:08;5.00;99.90
51589;DHT22;37671;53.258;6.460;2022-12-07T12:59:36;4.90;99.90
51589;DHT22;37671;53.258;6.460;2022-12-07T13:02:33;4.80;99.90
51589;DHT22;37671;53.258;6.460;2022-12-07T13:15:37;5.90;99.90
51589;DHT22;37671;53.258;6.460;2022-12-07T13:20:49;4.80;99.90
51589;DHT22;37671;53.258;6.460;2022-12-07T13:23:21;4.80;99.90
51589;DHT22;37671;53.258;6.460;2022-12-07T13:25:59;4.70;99.90
51589;DHT22;37671;53.258;6.460;2022-12-07T13:28:36;4.60;99.90
51589;DHT22;37671;53.258;6.460;2022-12-07T13:31:30;4.60;99.90
51589;DHT22;37671;53.258;6.460;2022-12-07T13:33:57;4.30;99.90
51589;DHT22;37671;53.258;6.460;2022-12-07T13:36:25;4.10;99.90
51589;DHT22;37671;53.258;6.460;2022-12-07T13:38:53;4.00;99.90
51589;DHT22;37671;53.258;6.460;2022-12-07T13:41:24;3.90;99.90
51589;DHT22;37671;53.258;6.460;2022-12-07T13:44:00;3.90;99.90
51589;DHT22;37671;53.258;6.460;2022-12-07T13:46:45;3.90;99.90
51589;DHT22;37671;53.258;6.460;2022-12-07T13:49:23;3.80;99.90
51589;DHT22;37671;53.258;6.460;2022-12-07T13:51:49;3.70;99.90
51589;DHT22;37671;53.258;6.460;2022-12-07T13:54:15;3.70;99.90
51589;DHT22;37671;53.258;6.460;2022-12-07T13:56:42;3.80;99.90
51589;DHT22;37671;53.258;6.460;2022-12-07T13:59:17;3.70;99.90
51589;DHT22;37671;53.258;6.460;2022-12-07T14:01:45;3.90;99.90
51589;DHT22;37671;53.258;6.460;2022-12-07T14:04:30;4.00;99.90
51589;DHT22;37671;53.258;6.460;2022-12-07T14:06:57;3.70;99.90
51589;DHT22;37671;53.258;6.460;2022-12-07T14:09:25;3.70;99.90
51589;DHT22;37671;53.258;6.460;2022-12-07T14:11:53;3.70;99.90
51589;DHT22;37671;53.258;6.460;2022-12-07T14:14:26;3.60;99.90
51589;DHT22;37671;53.258;6.460;2022-12-07T14:17:16;3.60;99.90
51589;DHT22;37671;53.258;6.460;2022-12-07T14:19:51;3.60;99.90
51589;DHT22;37671;53.258;6.460;2022-12-07T14:22:41;3.50;99.90
51589;DHT22;37671;53.258;6.460;2022-12-07T14:25:17;3.50;99.90
51589;DHT22;37671;53.258;6.460;2022-12-07T14:28:02;3.50;99.90
51589;DHT22;37671;53.258;6.460;2022-12-07T14:30:32;3.50;99.90
51589;DHT22;37671;53.258;6.460;2022-12-07T14:33:04;3.60;99.90
51589;DHT22;37671;53.258;6.460;2022-12-07T14:35:31;3.60;99.90
51589;DHT22;37671;53.258;6.460;2022-12-07T14:37:57;3.70;99.90
51589;DHT22;37671;53.258;6.460;2022-12-07T14:40:27;3.70;99.90
51589;DHT22;37671;53.258;6.460;2022-12-07T14:42:59;3.60;99.90
51589;DHT22;37671;53.258;6.460;2022-12-07T14:45:26;3.60;99.90
51589;DHT22;37671;53.258;6.460;2022-12-07T14:47:52;3.60;99.90
51589;DHT22;37671;53.258;6.460;2022-12-07T14:50:20;3.60;99.90
51589;DHT22;37671;53.258;6.460;2022-12-07T14:52:56;3.50;99.90
51589;DHT22;37671;53.258;6.460;2022-12-07T14:55:25;3.50;99.90
51589;DHT22;37671;53.258;6.460;2022-12-07T14:57:51;3.40;99.90
51589;DHT22;37671;53.258;6.460;2022-12-07T15:00:17;3.40;99.90
51589;DHT22;37671;53.258;6.460;2022-12-07T15:02:45;3.40;99.90
51589;DHT22;37671;53.258;6.460;2022-12-07T15:05:11;3.30;99.90
51589;DHT22;37671;53.258;6.460;2022-12-07T15:07:36;3.20;99.90
51589;DHT22;37671;53.258;6.460;2022-12-07T15:10:03;3.10;99.90
51589;DHT22;37671;53.258;6.460;2022-12-07T15:12:28;3.00;99.90
51589;DHT22;37671;53.258;6.460;2022-12-07T15:14:54;3.00;99.90
51589;DHT22;37671;53.258;6.460;2022-12-07T15:17:20;2.90;99.90
51589;DHT22;37671;53.258;6.460;2022-12-07T15:19:46;2.80;99.90
51589;DHT22;37671;53.258;6.460;2022-12-07T15:22:11;2.80;99.90
51589;DHT22;37671;53.258;6.460;2022-12-07T15:24:37;2.80;99.90
51589;DHT22;37671;53.258;6.460;2022-12-07T15:27:03;2.80;99.90
51589;DHT22;37671;53.258;6.460;2022-12-07T15:29:29;2.80;99.90
51589;DHT22;37671;53.258;6.460;2022-12-07T15:31:55;2.80;99.90
51589;DHT22;37671;53.258;6.460;2022-12-07T15:34:21;2.80;99.90
51589;DHT22;37671;53.258;6.460;2022-12-07T15:36:46;2.80;99.90
51589;DHT22;37671;53.258;6.460;2022-12-07T15:39:12;2.80;99.90
51589;DHT22;37671;53.258;6.460;2022-12-07T15:41:38;2.80;99.90
51589;DHT22;37671;53.258;6.460;2022-12-07T15:44:03;2.80;99.90
51589;DHT22;37671;53.258;6.460;2022-12-07T15:46:48;2.80;99.90
51589;DHT22;37671;53.258;6.460;2022-12-07T15:49:16;2.80;99.90
51589;DHT22;37671;53.258;6.460;2022-12-07T15:51:43;2.70;99.90
51589;DHT22;37671;53.258;6.460;2022-12-07T15:54:18;2.70;99.90
51589;DHT22;37671;53.258;6.460;2022-12-07T15:56:43;2.80;99.90
51589;DHT22;37671;53.258;6.460;2022-12-07T15:59:09;2.80;99.90
51589;DHT22;37671;53.258;6.460;2022-12-07T16:01:35;4.00;99.90
51589;DHT22;37671;53.258;6.460;2022-12-07T16:04:00;3.00;99.90
51589;DHT22;37671;53.258;6.460;2022-12-07T16:06:26;2.80;99.90
51589;DHT22;37671;53.258;6.460;2022-12-07T16:08:52;2.90;99.90
51589;DHT22;37671;53.258;6.460;2022-12-07T16:11:18;2.90;99.90
51589;DHT22;37671;53.258;6.460;2022-12-07T16:13:43;3.00;99.90
51589;DHT22;37671;53.258;6.460;2022-12-07T16:16:14;3.00;99.90
51589;DHT22;37671;53.258;6.460;2022-12-07T16:18:42;3.00;99.90
51589;DHT22;37671;53.258;6.460;2022-12-07T16:21:07;3.00;99.90
51589;DHT22;37671;53.258;6.460;2022-12-07T16:23:33;2.90;99.90
51589;DHT22;37671;53.258;6.460;2022-12-07T16:26:07;2.90;99.90
51589;DHT22;37671;53.258;6.460;2022-12-07T16:28:33;2.80;99.90
51589;DHT22;37671;53.258;6.460;2022-12-07T16:31:12;2.80;99.90
51589;DHT22;37671;53.258;6.460;2022-12-07T16:33:40;2.70;99.90
51589;DHT22;37671;53.258;6.460;2022-12-07T16:36:07;2.80;99.90
51589;DHT22;37671;53.258;6.460;2022-12-07T16:38:34;2.80;99.90
51589;DHT22;37671;53.258;6.460;2022-12-07T16:41:01;2.80;99.90
51589;DHT22;37671;53.258;6.460;2022-12-07T16:43:26;2.80;99.90
51589;DHT22;37671;53.258;6.460;2022-12-07T16:45:52;2.80;99.90
51589;DHT22;37671;53.258;6.460;2022-12-07T16:48:18;2.80;99.90
51589;DHT22;37671;53.258;6.460;2022-12-07T16:50:44;2.80;99.90
51589;DHT22;37671;53.258;6.460;2022-12-07T16:53:11;2.80;99.90
51589;DHT22;37671;53.258;6.460;2022-12-07T16:55:38;2.70;99.90
51589;DHT22;37671;53.258;6.460;2022-12-07T16:58:05;2.70;99.90
51589;DHT22;37671;53.258;6.460;2022-12-07T17:00:31;2.70;99.90
51589;DHT22;37671;53.258;6.460;2022-12-07T17:02:57;2.70;99.90
51589;DHT22;37671;53.258;6.460;2022-12-07T17:05:22;2.70;99.90
51589;DHT22;37671;53.258;6.460;2022-12-07T17:07:50;2.70;99.90
51589;DHT22;37671;53.258;6.460;2022-12-07T17:10:16;2.70;99.90
51589;DHT22;37671;53.258;6.460;2022-12-07T17:12:41;2.60;99.90
51589;DHT22;37671;53.258;6.460;2022-12-07T17:15:08;4.10;99.90
51589;DHT22;37671;53.258;6.460;2022-12-07T17:17:54;2.70;99.90
51589;DHT22;37671;53.258;6.460;2022-12-07T17:20:21;2.70;99.90
51589;DHT22;37671;53.258;6.460;2022-12-07T17:22:48;2.90;99.90
51589;DHT22;37671;53.258;6.460;2022-12-07T17:25:13;2.80;99.90
51589;DHT22;37671;53.258;6.460;2022-12-07T17:27:39;2.80;99.90
51589;DHT22;37671;53.258;6.460;2022-12-07T17:30:06;2.80;99.90
51589;DHT22;37671;53.258;6.460;2022-12-07T17:32:32;2.90;99.90
51589;DHT22;37671;53.258;6.460;2022-12-07T17:34:58;2.90;99.90
51589;DHT22;37671;53.258;6.460;2022-12-07T17:37:25;2.90;99.90
51589;DHT22;37671;53.258;6.460;2022-12-07T17:39:52;2.90;99.90
51589;DHT22;37671;53.258;6.460;2022-12-07T17:42:18;2.90;99.90
51589;DHT22;37671;53.258;6.460;2022-12-07T17:45:08;2.90;99.90
51589;DHT22;37671;53.258;6.460;2022-12-07T17:47:35;2.90;99.90
51589;DHT22;37671;53.258;6.460;2022-12-07T17:50:02;2.80;99.90
51589;DHT22;37671;53.258;6.460;2022-12-07T17:52:28;2.90;99.90
51589;DHT22;37671;53.258;6.460;2022-12-07T17:55:12;2.80;99.90
51589;DHT22;37671;53.258;6.460;2022-12-07T17:57:38;2.80;99.90
51589;DHT22;37671;53.258;6.460;2022-12-07T18:00:05;2.80;99.90
51589;DHT22;37671;53.258;6.460;2022-12-07T18:02:31;2.80;99.90
51589;DHT22;37671;53.258;6.460;2022-12-07T18:04:57;2.70;99.90
51589;DHT22;37671;53.258;6.460;2022-12-07T18:07:22;3.10;99.90
51589;DHT22;37671;53.258;6.460;2022-12-07T18:09:48;2.60;99.90
51589;DHT22;37671;53.258;6.460;2022-12-07T18:12:14;2.50;99.90
51589;DHT22;37671;53.258;6.460;2022-12-07T18:14:39;2.50;99.90
51589;DHT22;37671;53.258;6.460;2022-12-07T18:17:05;2.50;99.90
51589;DHT22;37671;53.258;6.460;2022-12-07T18:19:31;2.40;99.90
51589;DHT22;37671;53.258;6.460;2022-12-07T18:21:57;2.40;99.90
51589;DHT22;37671;53.258;6.460;2022-12-07T18:24:23;2.40;99.90
51589;DHT22;37671;53.258;6.460;2022-12-07T18:26:49;2.40;99.90
51589;DHT22;37671;53.258;6.460;2022-12-07T18:29:17;2.40;99.90
51589;DHT22;37671;53.258;6.460;2022-12-07T18:31:44;2.40;99.90
51589;DHT22;37671;53.258;6.460;2022-12-07T18:34:16;2.30;99.90
51589;DHT22;37671;53.258;6.460;2022-12-07T18:36:45;4.00;99.90
51589;DHT22;37671;53.258;6.460;2022-12-07T18:39:12;2.30;99.90
51589;DHT22;37671;53.258;6.460;2022-12-07T18:41:39;2.30;99.90
51589;DHT22;37671;53.258;6.460;2022-12-07T18:44:05;2.30;99.90
51589;DHT22;37671;53.258;6.460;2022-12-07T18:46:32;2.20;99.90
51589;DHT22;37671;53.258;6.460;2022-12-07T18:48:57;2.20;99.90
51589;DHT22;37671;53.258;6.460;2022-12-07T18:51:25;2.30;99.90
51589;DHT22;37671;53.258;6.460;2022-12-07T18:53:54;2.30;99.90
51589;DHT22;37671;53.258;6.460;2022-12-07T18:56:22;2.30;99.90
51589;DHT22;37671;53.258;6.460;2022-12-07T18:58:54;2.30;99.90
51589;DHT22;37671;53.258;6.460;2022-12-07T19:01:40;2.40;99.90
51589;DHT22;37671;53.258;6.460;2022-12-07T19:04:06;2.50;99.90
51589;DHT22;37671;53.258;6.460;2022-12-07T19:06:33;2.60;99.90
51589;DHT22;37671;53.258;6.460;2022-12-07T19:09:00;2.60;99.90
51589;DHT22;37671;53.258;6.460;2022-12-07T19:11:27;2.60;99.90
51589;DHT22;37671;53.258;6.460;2022-12-07T19:14:13;2.70;99.90
51589;DHT22;37671;53.258;6.460;2022-12-07T19:16:43;2.70;99.90
51589;DHT22;37671;53.258;6.460;2022-12-07T19:19:09;2.80;99.90
51589;DHT22;37671;53.258;6.460;2022-12-07T19:21:35;2.70;99.90
51589;DHT22;37671;53.258;6.460;2022-12-07T19:24:05;2.70;99.90
51589;DHT22;37671;53.258;6.460;2022-12-07T19:26:32;2.70;99.90
51589;DHT22;37671;53.258;6.460;2022-12-07T19:28:58;2.70;99.90
51589;DHT22;37671;53.258;6.460;2022-12-07T19:31:23;2.70;99.90
51589;DHT22;37671;53.258;6.460;2022-12-07T19:33:49;2.60;99.90
51589;DHT22;37671;53.258;6.460;2022-12-07T19:36:15;2.50;99.90
51589;DHT22;37671;53.258;6.460;2022-12-07T19:38:40;2.60;99.90
51589;DHT22;37671;53.258;6.460;2022-12-07T19:41:08;2.50;99.90
51589;DHT22;37671;53.258;6.460;2022-12-07T19:43:58;2.40;99.90
51589;DHT22;37671;53.258;6.460;2022-12-07T19:46:24;2.50;99.90
51589;DHT22;37671;53.258;6.460;2022-12-07T19:48:50;2.40;99.90
51589;DHT22;37671;53.258;6.460;2022-12-07T19:51:18;2.40;99.90
51589;DHT22;37671;53.258;6.460;2022-12-07T19:53:44;2.30;99.90
51589;DHT22;37671;53.258;6.460;2022-12-07T19:56:14;2.30;99.90
51589;DHT22;37671;53.258;6.460;2022-12-07T19:58:40;2.30;99.90
51589;DHT22;37671;53.258;6.460;2022-12-07T20:01:06;2.20;99.90
51589;DHT22;37671;53.258;6.460;2022-12-07T20:03:31;2.20;99.90
51589;DHT22;37671;53.258;6.460;2022-12-07T20:05:57;2.10;99.90
51589;DHT22;37671;53.258;6.460;2022-12-07T20:08:24;2.10;99.90
51589;DHT22;37671;53.258;6.460;2022-12-07T20:10:50;2.00;99.90
51589;DHT22;37671;53.258;6.460;2022-12-07T20:13:16;1.90;99.90
51589;DHT22;37671;53.258;6.460;2022-12-07T20:15:57;2.00;99.90
51589;DHT22;37671;53.258;6.460;2022-12-07T20:18:23;1.90;99.90
51589;DHT22;37671;53.258;6.460;2022-12-07T20:20:53;1.90;99.90
51589;DHT22;37671;53.258;6.460;2022-12-07T20:23:21;1.90;99.90
51589;DHT22;37671;53.258;6.460;2022-12-07T20:25:50;1.90;99.90
51589;DHT22;37671;53.258;6.460;2022-12-07T20:28:15;1.90;99.90
51589;DHT22;37671;53.258;6.460;2022-12-07T20:30:48;1.90;99.90
51589;DHT22;37671;53.258;6.460;2022-12-07T20:33:14;1.80;99.90
51589;DHT22;37671;53.258;6.460;2022-12-07T20:35:40;2.00;99.90
51589;DHT22;37671;53.258;6.460;2022-12-07T20:38:07;1.80;99.90
51589;DHT22;37671;53.258;6.460;2022-12-07T20:40:32;1.80;99.90
51589;DHT22;37671;53.258;6.460;2022-12-07T20:43:01;1.70;99.90
51589;DHT22;37671;53.258;6.460;2022-12-07T20:45:28;0.90;99.90
51589;DHT22;37671;53.258;6.460;2022-12-07T20:47:54;1.90;99.90
51589;DHT22;37671;53.258;6.460;2022-12-07T20:50:20;1.90;99.90
51589;DHT22;37671;53.258;6.460;2022-12-07T20:52:45;1.90;99.90
51589;DHT22;37671;53.258;6.460;2022-12-07T20:55:11;1.90;99.90
51589;DHT22;37671;53.258;6.460;2022-12-07T20:57:37;2.00;99.90
51589;DHT22;37671;53.258;6.460;2022-12-07T21:00:04;4.00;99.90
51589;DHT22;37671;53.258;6.460;2022-12-07T21:02:31;2.10;99.90
51589;DHT22;37671;53.258;6.460;2022-12-07T21:04:57;3.80;99.90
51589;DHT22;37671;53.258;6.460;2022-12-07T21:07:23;3.00;99.90
51589;DHT22;37671;53.258;6.460;2022-12-07T21:09:50;2.00;99.90
51589;DHT22;37671;53.258;6.460;2022-12-07T21:12:17;2.00;99.90
51589;DHT22;37671;53.258;6.460;2022-12-07T21:14:43;2.70;99.90
51589;DHT22;37671;53.258;6.460;2022-12-07T21:17:09;1.90;99.90
51589;DHT22;37671;53.258;6.460;2022-12-07T21:19:36;1.60;99.90
51589;DHT22;37671;53.258;6.460;2022-12-07T21:22:03;3.90;99.90
51589;DHT22;37671;53.258;6.460;2022-12-07T21:24:29;2.70;99.90
51589;DHT22;37671;53.258;6.460;2022-12-07T21:26:54;1.90;99.90
51589;DHT22;37671;53.258;6.460;2022-12-07T21:29:20;1.80;99.90
51589;DHT22;37671;53.258;6.460;2022-12-07T21:31:47;1.80;99.90
51589;DHT22;37671;53.258;6.460;2022-12-07T21:34:13;1.80;99.90
51589;DHT22;37671;53.258;6.460;2022-12-07T21:36:41;1.90;99.90
51589;DHT22;37671;53.258;6.460;2022-12-07T21:39:08;1.80;99.90
51589;DHT22;37671;53.258;6.460;2022-12-07T21:41:37;1.60;99.90
51589;DHT22;37671;53.258;6.460;2022-12-07T21:44:06;1.80;99.90
51589;DHT22;37671;53.258;6.460;2022-12-07T21:46:32;1.80;99.90
51589;DHT22;37671;53.258;6.460;2022-12-07T21:48:59;3.50;99.90
51589;DHT22;37671;53.258;6.460;2022-12-07T21:51:27;1.70;99.90
51589;DHT22;37671;53.258;6.460;2022-12-07T21:53:54;3.70;99.90
51589;DHT22;37671;53.258;6.460;2022-12-07T21:56:22;1.80;99.90
51589;DHT22;37671;53.258;6.460;2022-12-07T21:58:49;1.70;99.90
51589;DHT22;37671;53.258;6.460;2022-12-07T22:01:21;1.80;99.90
51589;DHT22;37671;53.258;6.460;2022-12-07T22:03:47;1.80;99.90
51589;DHT22;37671;53.258;6.460;2022-12-07T22:06:14;1.80;99.90
51589;DHT22;37671;53.258;6.460;2022-12-07T22:08:42;1.80;99.90
51589;DHT22;37671;53.258;6.460;2022-12-07T22:11:08;1.80;99.90
51589;DHT22;37671;53.258;6.460;2022-12-07T22:13:39;1.80;99.90
51589;DHT22;37671;53.258;6.460;2022-12-07T22:16:23;1.90;99.90
51589;DHT22;37671;53.258;6.460;2022-12-07T22:18:49;2.00;99.90
51589;DHT22;37671;53.258;6.460;2022-12-07T22:21:15;2.00;99.90
51589;DHT22;37671;53.258;6.460;2022-12-07T22:23:40;2.10;99.90
51589;DHT22;37671;53.258;6.460;2022-12-07T22:26:10;2.10;99.90
51589;DHT22;37671;53.258;6.460;2022-12-07T22:28:37;2.10;99.90
51589;DHT22;37671;53.258;6.460;2022-12-07T22:31:08;3.30;99.90
51589;DHT22;37671;53.258;6.460;2022-12-07T22:33:34;2.00;99.90
51589;DHT22;37671;53.258;6.460;2022-12-07T22:36:00;2.00;99.90
51589;DHT22;37671;53.258;6.460;2022-12-07T22:38:26;2.00;99.90
51589;DHT22;37671;53.258;6.460;2022-12-07T22:40:53;1.90;99.90
51589;DHT22;37671;53.258;6.460;2022-12-07T22:43:19;1.90;99.90
51589;DHT22;37671;53.258;6.460;2022-12-07T22:45:54;1.80;99.90
51589;DHT22;37671;53.258;6.460;2022-12-07T22:48:20;1.70;99.90